Time;durP1;ratioP1;P1;durP2;ratioP2;P2;SDS_P1;SDS_P2;PMS_P1;PMS_P2;Temp;Humidity;BMP_temperature;BMP_pressure;BME280_temperature;BME280_humidity;BME280_pressure;Samples;Min_cycle;Max_cycle;Signal;HPM_P1;HPM_P2
2022/07/04 00:00:26;;;;;;;;;;;19.70;99.90;;;;;;5032795;28;20195;-71
2022/07/04 00:02:54;;;;;;;;;;;19.50;99.70;;;;;;5029197;28;20244;-70
2022/07/04 00:05:23;;;;;;;;;;;19.50;99.90;;;;;;5029714;28;20265;-70
2022/07/04 00:07:51;;;;;;;;;;;19.40;99.90;;;;;;5030218;28;20206;-70
2022/07/04 00:10:22;;;;;;;;;;;19.40;99.90;;;;;;5042266;28;20566;-71
2022/07/04 00:12:50;;;;;;;;;;;19.30;99.90;;;;;;5032883;28;20252;-69
2022/07/04 00:15:18;;;;;;;;;;;19.20;99.90;;;;;;5028670;28;20660;-71
2022/07/04 00:17:46;;;;;;;;;;;19.10;99.90;;;;;;5029965;28;20678;-70
2022/07/04 00:20:14;;;;;;;;;;;19.10;99.90;;;;;;5028674;28;20206;-71
2022/07/04 00:22:43;;;;;;;;;;;19.10;99.90;;;;;;5032976;28;20183;-69
2022/07/04 00:25:10;;;;;;;;;;;19.00;99.90;;;;;;5028654;28;20558;-70
2022/07/04 00:27:38;;;;;;;;;;;19.00;99.90;;;;;;5029626;28;20612;-70
2022/07/04 00:30:07;;;;;;;;;;;18.90;99.90;;;;;;5028318;28;20753;-71
2022/07/04 00:32:35;;;;;;;;;;;18.80;99.90;;;;;;5028509;28;20202;-71
2022/07/04 00:35:02;;;;;;;;;;;19.00;99.90;;;;;;5043684;28;20567;-71
2022/07/04 00:37:30;;;;;;;;;;;18.80;99.90;;;;;;5028446;28;20284;-70
2022/07/04 00:39:59;;;;;;;;;;;18.80;99.90;;;;;;5027986;28;20265;-71
2022/07/04 00:42:27;;;;;;;;;;;19.00;99.90;;;;;;5028785;28;20206;-70
2022/07/04 00:44:55;;;;;;;;;;;18.90;99.90;;;;;;5029104;28;20206;-69
2022/07/04 00:47:23;;;;;;;;;;;18.80;99.90;;;;;;5028580;28;20668;-70
2022/07/04 00:49:50;;;;;;;;;;;18.80;99.90;;;;;;5029438;28;20195;-70
2022/07/04 00:52:18;;;;;;;;;;;18.70;99.90;;;;;;5024178;28;20230;-71
2022/07/04 00:54:46;;;;;;;;;;;18.70;99.90;;;;;;5028501;28;20253;-71
2022/07/04 00:57:16;;;;;;;;;;;18.80;99.90;;;;;;5028792;28;20201;-71
2022/07/04 00:59:44;;;;;;;;;;;18.70;99.90;;;;;;5029420;28;20195;-71
2022/07/04 01:02:11;;;;;;;;;;;18.70;99.90;;;;;;5027813;28;20200;-70
2022/07/04 01:04:39;;;;;;;;;;;18.60;99.90;;;;;;5028536;28;20261;-70
2022/07/04 01:07:08;;;;;;;;;;;18.60;99.90;;;;;;5028115;28;20203;-71
2022/07/04 01:09:36;;;;;;;;;;;18.60;99.90;;;;;;5027084;28;20207;-71
2022/07/04 01:12:05;;;;;;;;;;;18.50;99.90;;;;;;5027700;28;20264;-70
2022/07/04 01:14:37;;;;;;;;;;;18.50;99.90;;;;;;5027195;28;20260;-71
2022/07/04 01:17:05;;;;;;;;;;;18.50;99.90;;;;;;5026560;28;20252;-70
2022/07/04 01:19:32;;;;;;;;;;;18.50;99.90;;;;;;5031643;28;20198;-71
2022/07/04 01:22:07;;;;;;;;;;;18.40;99.90;;;;;;5025862;28;20257;-69
2022/07/04 01:24:35;;;;;;;;;;;18.40;99.90;;;;;;5026862;28;20206;-71
2022/07/04 01:27:02;;;;;;;;;;;18.30;99.90;;;;;;5028560;28;20199;-71
2022/07/04 01:29:31;;;;;;;;;;;18.30;99.90;;;;;;5024141;28;20196;-72
2022/07/04 01:32:03;;;;;;;;;;;18.30;99.90;;;;;;5034548;28;20627;-71
2022/07/04 01:34:31;;;;;;;;;;;18.20;99.90;;;;;;5029586;28;20748;-72
2022/07/04 01:37:11;;;;;;;;;;;18.20;99.90;;;;;;5025940;28;20203;-71
2022/07/04 01:39:39;;;;;;;;;;;18.10;99.90;;;;;;5029842;28;20660;-69
2022/07/04 01:42:07;;;;;;;;;;;18.20;99.90;;;;;;5029039;28;20262;-70
2022/07/04 01:44:35;;;;;;;;;;;18.20;99.90;;;;;;5024267;28;20211;-71
2022/07/04 01:47:03;;;;;;;;;;;18.20;99.90;;;;;;5027820;28;20261;-69
2022/07/04 01:49:31;;;;;;;;;;;18.20;99.90;;;;;;5028757;28;20199;-70
2022/07/04 01:51:58;;;;;;;;;;;18.20;99.90;;;;;;5030912;28;20207;-67
2022/07/04 01:54:28;;;;;;;;;;;18.20;99.90;;;;;;5030186;28;20252;-69
2022/07/04 01:56:55;;;;;;;;;;;18.10;99.90;;;;;;5028128;28;20198;-68
2022/07/04 02:01:29;;;;;;;;;;;18.10;99.90;;;;;;5031109;28;20206;-69
2022/07/04 02:02:10;;;;;;;;;;;18.10;99.90;;;;;;5034852;28;20210;-71
2022/07/04 02:04:38;;;;;;;;;;;18.10;99.90;;;;;;5024782;28;20277;-68
2022/07/04 02:07:06;;;;;;;;;;;18.10;99.90;;;;;;5028365;28;20198;-69
2022/07/04 02:09:35;;;;;;;;;;;18.20;99.90;;;;;;5027103;28;20186;-69
2022/07/04 02:14:48;;;;;;;;;;;18.20;99.90;;;;;;5034469;28;20683;-70
2022/07/04 02:17:17;;;;;;;;;;;18.20;99.90;;;;;;5030478;28;20795;-70
2022/07/04 02:19:45;;;;;;;;;;;18.30;99.90;;;;;;5029413;28;20195;-70
2022/07/04 02:22:12;;;;;;;;;;;18.50;99.90;;;;;;5027782;28;20780;-70
2022/07/04 02:24:42;;;;;;;;;;;18.50;99.90;;;;;;5025181;28;20253;-70
2022/07/04 02:27:09;;;;;;;;;;;18.60;99.90;;;;;;5025058;28;20269;-71
2022/07/04 02:29:37;;;;;;;;;;;18.90;99.90;;;;;;5026576;28;20254;-71
2022/07/04 02:32:06;;;;;;;;;;;18.80;99.90;;;;;;5030186;28;20183;-72
2022/07/04 02:34:34;;;;;;;;;;;18.70;99.90;;;;;;5026339;28;20267;-70
2022/07/04 02:37:01;;;;;;;;;;;18.40;99.90;;;;;;5031401;28;20221;-70
2022/07/04 02:39:29;;;;;;;;;;;18.40;99.90;;;;;;5038049;28;20208;-72
2022/07/04 02:41:58;;;;;;;;;;;18.30;99.90;;;;;;5030337;28;20194;-71
2022/07/04 02:44:26;;;;;;;;;;;18.30;99.90;;;;;;5028525;28;20206;-71
2022/07/04 02:46:54;;;;;;;;;;;18.30;99.90;;;;;;5029457;28;20195;-71
2022/07/04 02:49:22;;;;;;;;;;;18.30;99.90;;;;;;5031601;28;20207;-71
2022/07/04 02:51:49;;;;;;;;;;;18.20;99.90;;;;;;5029997;28;20110;-71
2022/07/04 02:54:17;;;;;;;;;;;18.20;99.90;;;;;;5030931;28;20224;-70
2022/07/04 02:56:45;;;;;;;;;;;18.20;99.90;;;;;;5032533;28;20749;-70
2022/07/04 02:59:14;;;;;;;;;;;18.10;99.90;;;;;;5042017;28;20267;-70
2022/07/04 03:01:42;;;;;;;;;;;17.90;99.90;;;;;;5027651;28;20204;-70
2022/07/04 03:04:10;;;;;;;;;;;17.80;99.90;;;;;;5029813;28;20212;-70
2022/07/04 03:06:39;;;;;;;;;;;17.80;99.90;;;;;;5035000;28;20203;-71
2022/07/04 03:09:07;;;;;;;;;;;17.90;99.90;;;;;;5029362;28;20286;-71
2022/07/04 03:11:35;;;;;;;;;;;17.90;99.90;;;;;;5028701;28;20216;-71
2022/07/04 03:14:03;;;;;;;;;;;18.00;99.90;;;;;;5069643;22;20292;-65
2022/07/04 03:16:32;;;;;;;;;;;18.20;99.90;;;;;;5051126;28;20190;-65
2022/07/04 03:18:59;;;;;;;;;;;18.20;99.90;;;;;;5048208;28;20547;-64
2022/07/04 03:21:27;;;;;;;;;;;18.20;99.90;;;;;;5049376;28;20212;-64
2022/07/04 03:24:01;;;;;;;;;;;18.10;99.90;;;;;;5046813;28;20251;-64
2022/07/04 03:26:30;;;;;;;;;;;18.00;99.90;;;;;;5051752;28;20231;-64
2022/07/04 03:28:58;;;;;;;;;;;17.90;99.90;;;;;;5048354;28;20203;-65
2022/07/04 03:31:26;;;;;;;;;;;17.70;99.90;;;;;;5047151;28;20274;-64
2022/07/04 03:33:55;;;;;;;;;;;17.60;99.90;;;;;;5049193;28;20086;-64
2022/07/04 03:36:23;;;;;;;;;;;17.60;99.90;;;;;;5028720;28;20230;-64
2022/07/04 03:38:51;;;;;;;;;;;17.70;99.90;;;;;;5043965;28;20194;-64
2022/07/04 03:41:19;;;;;;;;;;;17.60;99.90;;;;;;5048200;28;20186;-64
2022/07/04 03:43:47;;;;;;;;;;;17.60;99.90;;;;;;5047370;28;22103;-65
2022/07/04 03:46:15;;;;;;;;;;;17.60;99.90;;;;;;5048037;28;20200;-63
2022/07/04 03:48:43;;;;;;;;;;;17.60;99.90;;;;;;5047626;28;20289;-64
2022/07/04 03:51:13;;;;;;;;;;;17.60;99.90;;;;;;5053237;28;20201;-65
2022/07/04 03:53:41;;;;;;;;;;;17.70;99.90;;;;;;5031291;28;20242;-64
2022/07/04 03:56:09;;;;;;;;;;;17.70;99.90;;;;;;5038298;28;20194;-65
2022/07/04 03:58:36;;;;;;;;;;;17.80;99.90;;;;;;5036419;28;20216;-64
2022/07/04 04:01:04;;;;;;;;;;;17.80;99.90;;;;;;5036670;28;20201;-64
2022/07/04 04:06:19;;;;;;;;;;;17.90;99.90;;;;;;5037069;28;20209;-64
2022/07/04 04:08:47;;;;;;;;;;;17.80;99.90;;;;;;5036872;28;21299;-65
2022/07/04 04:11:14;;;;;;;;;;;17.70;99.90;;;;;;5035405;28;20202;-64
2022/07/04 04:13:42;;;;;;;;;;;17.60;99.90;;;;;;5035810;28;20203;-64
2022/07/04 04:16:10;;;;;;;;;;;17.80;99.90;;;;;;5037871;28;20284;-65
2022/07/04 04:18:38;;;;;;;;;;;18.00;99.90;;;;;;5037365;28;20264;-65
2022/07/04 04:21:06;;;;;;;;;;;18.40;99.90;;;;;;5035614;28;20211;-65
2022/07/04 04:23:35;;;;;;;;;;;18.40;99.90;;;;;;5036059;28;20202;-66
2022/07/04 04:26:03;;;;;;;;;;;18.60;99.90;;;;;;5037063;28;20199;-65
2022/07/04 04:28:30;;;;;;;;;;;18.80;99.90;;;;;;5036962;28;20877;-65
2022/07/04 04:30:58;;;;;;;;;;;18.80;99.90;;;;;;5035285;28;20210;-66
2022/07/04 04:33:26;;;;;;;;;;;18.80;99.90;;;;;;5050397;28;20199;-65
2022/07/04 04:35:54;;;;;;;;;;;18.60;99.90;;;;;;5051730;28;20203;-65
2022/07/04 04:38:21;;;;;;;;;;;18.40;99.90;;;;;;5051470;28;20202;-64
2022/07/04 04:40:50;;;;;;;;;;;18.20;99.90;;;;;;5051244;28;20650;-65
2022/07/04 04:43:18;;;;;;;;;;;18.10;99.90;;;;;;5050775;28;20248;-65
2022/07/04 04:45:46;;;;;;;;;;;18.10;99.90;;;;;;5051465;28;20201;-64
2022/07/04 04:48:14;;;;;;;;;;;17.90;99.90;;;;;;5051466;28;20738;-65
2022/07/04 04:50:42;;;;;;;;;;;17.80;99.90;;;;;;5051165;28;20206;-64
2022/07/04 04:53:09;;;;;;;;;;;17.70;99.90;;;;;;5050805;28;20206;-66
2022/07/04 04:55:37;;;;;;;;;;;17.80;99.90;;;;;;5050933;28;20271;-64
2022/07/04 04:58:06;;;;;;;;;;;17.80;99.90;;;;;;5048478;28;20214;-63
2022/07/04 05:00:34;;;;;;;;;;;17.80;99.90;;;;;;5051012;28;20199;-65
2022/07/04 05:03:02;;;;;;;;;;;17.80;99.90;;;;;;5051236;28;20202;-65
2022/07/04 05:05:30;;;;;;;;;;;17.80;99.90;;;;;;5051952;28;20198;-65
2022/07/04 05:07:57;;;;;;;;;;;17.90;99.90;;;;;;5051220;28;20607;-65
2022/07/04 05:10:25;;;;;;;;;;;17.80;99.90;;;;;;5051448;28;20199;-65
2022/07/04 05:12:53;;;;;;;;;;;17.90;99.90;;;;;;5050753;28;20268;-66
2022/07/04 05:15:22;;;;;;;;;;;17.90;99.90;;;;;;5051735;28;20258;-65
2022/07/04 05:17:50;;;;;;;;;;;18.00;99.90;;;;;;5051859;28;20731;-65
2022/07/04 05:20:18;;;;;;;;;;;18.10;99.90;;;;;;5051442;28;20621;-66
2022/07/04 05:22:45;;;;;;;;;;;18.20;99.90;;;;;;5051122;28;20260;-67
2022/07/04 05:25:13;;;;;;;;;;;18.30;99.90;;;;;;5051526;28;20202;-65
2022/07/04 05:27:41;;;;;;;;;;;18.20;99.90;;;;;;5051480;28;20221;-65
2022/07/04 05:30:10;;;;;;;;;;;18.20;99.90;;;;;;5051380;28;20202;-65
2022/07/04 05:32:40;;;;;;;;;;;18.30;99.90;;;;;;5050534;28;20244;-65
2022/07/04 05:35:08;;;;;;;;;;;18.30;99.90;;;;;;5051284;28;20210;-65
2022/07/04 05:37:36;;;;;;;;;;;18.40;99.90;;;;;;5051080;28;20666;-65
2022/07/04 05:40:04;;;;;;;;;;;18.40;99.90;;;;;;5051284;28;20207;-65
2022/07/04 05:42:31;;;;;;;;;;;18.40;99.90;;;;;;5050675;28;20248;-65
2022/07/04 05:44:59;;;;;;;;;;;18.60;99.90;;;;;;5051298;28;20198;-67
2022/07/04 05:47:27;;;;;;;;;;;18.70;99.90;;;;;;5051318;28;20195;-65
2022/07/04 05:49:56;;;;;;;;;;;18.70;99.90;;;;;;5051392;28;20207;-65
2022/07/04 05:52:24;;;;;;;;;;;18.70;99.90;;;;;;5050171;28;20212;-65
2022/07/04 05:54:52;;;;;;;;;;;18.80;99.90;;;;;;5051275;28;20560;-66
2022/07/04 05:57:20;;;;;;;;;;;18.80;99.90;;;;;;5051328;28;20223;-65
2022/07/04 05:59:47;;;;;;;;;;;19.00;99.90;;;;;;5050973;28;20202;-65
2022/07/04 06:02:16;;;;;;;;;;;19.00;99.90;;;;;;5029369;28;20637;-65
2022/07/04 06:04:44;;;;;;;;;;;19.00;99.90;;;;;;5048932;28;20200;-65
2022/07/04 06:07:13;;;;;;;;;;;19.10;99.90;;;;;;5053178;28;20202;-63
2022/07/04 06:09:41;;;;;;;;;;;19.20;99.90;;;;;;5054818;28;20220;-67
2022/07/04 06:12:09;;;;;;;;;;;19.20;99.90;;;;;;5054079;28;20660;-65
2022/07/04 06:14:37;;;;;;;;;;;19.30;99.90;;;;;;5055099;28;20225;-65
2022/07/04 06:17:04;;;;;;;;;;;19.30;99.90;;;;;;5055304;28;20463;-65
2022/07/04 06:19:32;;;;;;;;;;;19.50;99.90;;;;;;5055239;28;20198;-64
2022/07/04 06:22:00;;;;;;;;;;;19.60;99.90;;;;;;5053875;28;20617;-67
2022/07/04 06:24:29;;;;;;;;;;;19.80;99.90;;;;;;5054998;28;20201;-65
2022/07/04 06:26:57;;;;;;;;;;;19.80;99.90;;;;;;5054707;28;20675;-65
2022/07/04 06:29:24;;;;;;;;;;;20.00;99.90;;;;;;5054614;28;20683;-65
2022/07/04 06:31:52;;;;;;;;;;;20.10;99.90;;;;;;5054732;28;20202;-65
2022/07/04 06:37:05;;;;;;;;;;;20.00;99.90;;;;;;5054485;28;20206;-65
2022/07/04 06:39:34;;;;;;;;;;;20.00;99.90;;;;;;5054296;28;20263;-65
2022/07/04 06:42:02;;;;;;;;;;;20.10;99.90;;;;;;5053574;28;20255;-67
2022/07/04 06:44:30;;;;;;;;;;;20.10;99.90;;;;;;5054732;28;20198;-65
2022/07/04 06:46:58;;;;;;;;;;;20.30;99.90;;;;;;5054545;28;20267;-66
2022/07/04 06:49:25;;;;;;;;;;;20.30;99.90;;;;;;5054431;28;20245;-65
2022/07/04 06:51:53;;;;;;;;;;;20.20;99.90;;;;;;5053949;28;20728;-66
2022/07/04 06:54:21;;;;;;;;;;;20.30;99.90;;;;;;5053852;28;20285;-65
2022/07/04 06:56:51;;;;;;;;;;;20.40;99.90;;;;;;5054411;28;20194;-65
2022/07/04 06:59:38;;;;;;;;;;;20.50;99.90;;;;;;5054331;28;20644;-66
2022/07/04 07:02:07;;;;;;;;;;;20.70;99.90;;;;;;5053258;28;20569;-66
2022/07/04 07:04:34;;;;;;;;;;;20.80;99.90;;;;;;5054027;28;20276;-66
2022/07/04 07:07:02;;;;;;;;;;;20.80;99.90;;;;;;5053981;28;20198;-66
2022/07/04 07:09:30;;;;;;;;;;;20.90;99.90;;;;;;5053807;28;20220;-66
2022/07/04 07:11:59;;;;;;;;;;;21.00;99.90;;;;;;5053407;28;20206;-69
2022/07/04 07:14:27;;;;;;;;;;;21.00;99.90;;;;;;5053762;28;20210;-66
2022/07/04 07:16:55;;;;;;;;;;;21.10;99.90;;;;;;5053242;28;20276;-66
2022/07/04 07:19:23;;;;;;;;;;;21.20;99.90;;;;;;5053806;28;20681;-66
2022/07/04 07:21:50;;;;;;;;;;;21.30;99.90;;;;;;5053839;28;20202;-69
2022/07/04 07:24:18;;;;;;;;;;;21.40;99.90;;;;;;5053265;28;20194;-67
2022/07/04 07:26:46;;;;;;;;;;;21.40;99.90;;;;;;5053742;28;20236;-66
2022/07/04 07:29:15;;;;;;;;;;;21.50;98.90;;;;;;5053701;28;20205;-66
2022/07/04 07:31:43;;;;;;;;;;;21.60;99.90;;;;;;5053248;28;20636;-67
2022/07/04 07:34:10;;;;;;;;;;;21.70;99.40;;;;;;5053164;28;20233;-66
2022/07/04 07:36:38;;;;;;;;;;;21.90;99.20;;;;;;5053450;28;20202;-67
2022/07/04 07:39:06;;;;;;;;;;;22.00;99.90;;;;;;5053211;28;20194;-66
2022/07/04 07:41:34;;;;;;;;;;;22.10;98.40;;;;;;5053326;28;20202;-66
2022/07/04 07:44:01;;;;;;;;;;;22.20;99.60;;;;;;5052571;28;20203;-66
2022/07/04 07:46:31;;;;;;;;;;;22.30;99.50;;;;;;5053335;28;20659;-67
2022/07/04 07:48:59;;;;;;;;;;;22.40;98.20;;;;;;5053368;28;20208;-65
2022/07/04 07:51:26;;;;;;;;;;;22.60;98.50;;;;;;5053136;28;20199;-67
2022/07/04 07:53:54;;;;;;;;;;;22.60;97.00;;;;;;5052286;28;20256;-67
2022/07/04 07:56:42;;;;;;;;;;;22.60;98.10;;;;;;5053081;28;20206;-67
2022/07/04 07:59:10;;;;;;;;;;;22.80;97.50;;;;;;5053173;28;20248;-66
2022/07/04 08:01:39;;;;;;;;;;;23.00;98.30;;;;;;5052967;28;20198;-67
2022/07/04 08:06:52;;;;;;;;;;;23.30;97.40;;;;;;5052857;28;20197;-67
2022/07/04 08:09:40;;;;;;;;;;;23.40;96.90;;;;;;5049542;28;20285;-67
2022/07/04 08:12:08;;;;;;;;;;;23.40;96.90;;;;;;5051785;28;20201;-67
2022/07/04 08:14:36;;;;;;;;;;;23.50;96.40;;;;;;5052979;28;20210;-67
2022/07/04 08:17:06;;;;;;;;;;;23.60;96.70;;;;;;5052765;28;20198;-67
2022/07/04 08:19:34;;;;;;;;;;;23.70;96.80;;;;;;5052689;28;20623;-66
2022/07/04 08:22:02;;;;;;;;;;;23.90;97.00;;;;;;5051828;28;20206;-67
2022/07/04 08:24:45;;;;;;;;;;;24.20;96.40;;;;;;5052749;28;20198;-66
2022/07/04 08:27:13;;;;;;;;;;;24.10;97.20;;;;;;5052697;28;20202;-67
2022/07/04 08:29:41;;;;;;;;;;;24.00;97.40;;;;;;5051594;28;20217;-66
2022/07/04 08:32:11;;;;;;;;;;;24.10;97.00;;;;;;5051383;28;20297;-66
2022/07/04 08:34:39;;;;;;;;;;;24.20;97.50;;;;;;5052550;28;20209;-66
2022/07/04 08:37:07;;;;;;;;;;;24.40;96.90;;;;;;5052236;28;20664;-66
2022/07/04 08:39:34;;;;;;;;;;;24.30;95.70;;;;;;5052276;28;20225;-66
2022/07/04 08:42:03;;;;;;;;;;;24.30;95.80;;;;;;5033574;28;20214;-67
2022/07/04 08:44:31;;;;;;;;;;;24.40;95.70;;;;;;5052286;28;20229;-67
2022/07/04 08:46:59;;;;;;;;;;;24.70;96.30;;;;;;5052414;28;20741;-67
2022/07/04 08:49:31;;;;;;;;;;;25.00;94.90;;;;;;5052372;28;20721;-66
2022/07/04 08:52:00;;;;;;;;;;;25.40;95.70;;;;;;5051676;28;20202;-66
2022/07/04 09:00:04;;;;;;;;;;;26.00;93.60;;;;;;5052119;28;20209;-67
2022/07/04 09:02:33;;;;;;;;;;;26.20;93.10;;;;;;5051057;28;20195;-67
2022/07/04 09:05:03;;;;;;;;;;;26.30;92.60;;;;;;5051910;28;20230;-67
2022/07/04 09:07:31;;;;;;;;;;;26.30;91.50;;;;;;5051674;28;20671;-66
2022/07/04 09:09:59;;;;;;;;;;;26.30;92.00;;;;;;5051419;28;20718;-67
2022/07/04 09:15:36;;;;;;;;;;;26.50;91.70;;;;;;4971218;28;20223;-71
2022/07/04 09:18:04;;;;;;;;;;;26.50;91.50;;;;;;4972971;28;20578;-71
2022/07/04 09:20:34;;;;;;;;;;;26.40;91.90;;;;;;4972957;28;20205;-70
2022/07/04 09:23:06;;;;;;;;;;;26.60;90.60;;;;;;4971584;28;20231;-71
2022/07/04 09:25:34;;;;;;;;;;;26.70;90.90;;;;;;4972763;28;20200;-71
2022/07/04 09:28:03;;;;;;;;;;;26.80;90.20;;;;;;4972473;28;20204;-69
2022/07/04 09:30:31;;;;;;;;;;;27.00;91.50;;;;;;4972383;28;20204;-71
2022/07/04 09:33:00;;;;;;;;;;;26.70;90.80;;;;;;4971508;28;20204;-71
2022/07/04 09:35:29;;;;;;;;;;;26.80;90.80;;;;;;4972322;28;20274;-71
2022/07/04 09:37:59;;;;;;;;;;;27.30;89.70;;;;;;4962380;28;20259;-71
2022/07/04 09:40:28;;;;;;;;;;;27.70;89.20;;;;;;4951683;28;20221;-70
2022/07/04 09:42:57;;;;;;;;;;;28.00;88.30;;;;;;4952399;28;20749;-71
2022/07/04 09:45:25;;;;;;;;;;;27.80;86.10;;;;;;4970775;28;20204;-71
2022/07/04 09:47:54;;;;;;;;;;;27.50;86.40;;;;;;4972128;28;20251;-71
2022/07/04 09:50:23;;;;;;;;;;;27.80;87.40;;;;;;4972025;28;20192;-71
2022/07/04 09:52:53;;;;;;;;;;;28.20;87.60;;;;;;4971302;28;20681;-71
2022/07/04 09:55:23;;;;;;;;;;;28.20;86.40;;;;;;4972012;28;20236;-70
2022/07/04 09:57:51;;;;;;;;;;;28.00;84.00;;;;;;4972110;28;20578;-70
2022/07/04 10:00:20;;;;;;;;;;;28.40;86.10;;;;;;4972085;28;20196;-71
2022/07/04 10:02:48;;;;;;;;;;;28.50;82.90;;;;;;4971570;28;20675;-71
2022/07/04 10:05:24;;;;;;;;;;;28.70;83.20;;;;;;4972114;28;20615;-71
2022/07/04 10:07:54;;;;;;;;;;;28.90;80.00;;;;;;4968870;28;20264;-71
2022/07/04 10:10:24;;;;;;;;;;;29.10;80.90;;;;;;4948121;28;20193;-70
2022/07/04 10:12:53;;;;;;;;;;;29.40;79.80;;;;;;4953575;28;20204;-71
2022/07/04 10:15:21;;;;;;;;;;;29.60;79.60;;;;;;4972972;28;20204;-72
2022/07/04 10:17:49;;;;;;;;;;;29.70;77.70;;;;;;4972602;28;20196;-71
2022/07/04 10:20:17;;;;;;;;;;;29.90;81.50;;;;;;4966844;28;20204;-71
2022/07/04 10:22:45;;;;;;;;;;;29.90;77.30;;;;;;4971859;28;20287;-72
2022/07/04 10:25:13;;;;;;;;;;;29.90;76.10;;;;;;4966563;28;20212;-71
2022/07/04 10:27:42;;;;;;;;;;;29.80;76.00;;;;;;4966099;28;20649;-70
2022/07/04 10:30:12;;;;;;;;;;;29.80;75.60;;;;;;4966690;28;20266;-71
2022/07/04 10:32:39;;;;;;;;;;;30.20;76.80;;;;;;4971906;28;20259;-71
2022/07/04 10:35:07;;;;;;;;;;;30.30;73.80;;;;;;4955555;28;20267;-71
2022/07/04 10:37:54;;;;;;;;;;;30.60;73.70;;;;;;4972336;28;20684;-71
2022/07/04 10:40:37;;;;;;;;;;;30.80;72.00;;;;;;4972662;28;20269;-71
2022/07/04 10:43:29;;;;;;;;;;;30.60;71.50;;;;;;4972092;28;20665;-71
2022/07/04 10:45:57;;;;;;;;;;;30.70;70.40;;;;;;4972812;28;20235;-72
2022/07/04 10:48:25;;;;;;;;;;;30.80;69.80;;;;;;4972277;28;20612;-71
2022/07/04 10:51:00;;;;;;;;;;;31.00;69.40;;;;;;4972443;28;20251;-71
2022/07/04 10:53:28;;;;;;;;;;;31.10;70.10;;;;;;4974290;28;20214;-71
2022/07/04 10:56:03;;;;;;;;;;;31.30;69.70;;;;;;4976051;28;20208;-71
2022/07/04 10:58:40;;;;;;;;;;;31.50;68.90;;;;;;4975936;28;20203;-71
2022/07/04 11:01:11;;;;;;;;;;;30.70;69.70;;;;;;4976209;28;20629;-71
2022/07/04 11:03:45;;;;;;;;;;;30.60;71.20;;;;;;4975353;28;20624;-71
2022/07/04 11:06:28;;;;;;;;;;;31.00;69.70;;;;;;4975849;28;20216;-71
2022/07/04 11:09:14;;;;;;;;;;;31.40;71.30;;;;;;4974759;28;20239;-71
2022/07/04 11:11:48;;;;;;;;;;;31.40;68.40;;;;;;4978308;28;20221;-71
2022/07/04 11:14:35;;;;;;;;;;;31.40;67.80;;;;;;4993402;28;20215;-71
2022/07/04 11:17:04;;;;;;;;;;;31.60;70.00;;;;;;4969113;28;20641;-71
2022/07/04 11:19:32;;;;;;;;;;;31.80;67.10;;;;;;4969419;28;20275;-71
2022/07/04 11:22:00;;;;;;;;;;;31.50;65.90;;;;;;4968767;28;20506;-69
2022/07/04 11:24:28;;;;;;;;;;;31.50;66.60;;;;;;4969099;28;20069;-69
2022/07/04 11:26:56;;;;;;;;;;;31.30;69.90;;;;;;4968982;28;20200;-71
2022/07/04 11:29:24;;;;;;;;;;;31.40;66.60;;;;;;4969089;28;20204;-70
2022/07/04 11:31:52;;;;;;;;;;;31.60;67.30;;;;;;4968630;28;20680;-71
2022/07/04 11:34:22;;;;;;;;;;;31.60;66.90;;;;;;4968469;28;20324;-71
2022/07/04 11:36:50;;;;;;;;;;;32.00;67.60;;;;;;4969026;28;20218;-71
2022/07/04 11:39:20;;;;;;;;;;;32.40;65.60;;;;;;4974872;28;20660;-71
2022/07/04 11:47:21;;;;;;;;;;;31.80;66.20;;;;;;4993687;28;20601;-71
2022/07/04 11:49:51;;;;;;;;;;;32.00;66.40;;;;;;4993767;28;20192;-70
2022/07/04 11:52:20;;;;;;;;;;;32.40;66.30;;;;;;4992960;28;20273;-71
2022/07/04 11:55:09;;;;;;;;;;;32.80;66.20;;;;;;4976267;28;20225;-71
2022/07/04 11:57:38;;;;;;;;;;;33.30;65.00;;;;;;4993623;28;20183;-71
2022/07/04 12:00:06;;;;;;;;;;;33.60;63.70;;;;;;4993514;28;20183;-71
2022/07/04 12:02:41;;;;;;;;;;;33.90;63.40;;;;;;4975527;28;20179;-71
2022/07/04 12:05:11;;;;;;;;;;;33.50;62.40;;;;;;4993422;28;20249;-71
2022/07/04 12:07:40;;;;;;;;;;;33.30;62.90;;;;;;4991971;28;20190;-71
2022/07/04 12:10:09;;;;;;;;;;;33.00;62.90;;;;;;4974398;28;20180;-71
2022/07/04 12:12:50;;;;;;;;;;;33.00;62.40;;;;;;4982889;28;20205;-72
2022/07/04 12:15:19;;;;;;;;;;;32.90;61.70;;;;;;4975776;28;20201;-72
2022/07/04 12:17:50;;;;;;;;;;;32.70;65.50;;;;;;4993100;28;20183;-71
2022/07/04 12:20:19;;;;;;;;;;;32.90;62.60;;;;;;4993105;28;20729;-71
2022/07/04 12:22:50;;;;;;;;;;;33.20;63.10;;;;;;4992456;28;20177;-71
2022/07/04 12:25:22;;;;;;;;;;;33.30;62.20;;;;;;4993040;28;20186;-71
2022/07/04 12:27:54;;;;;;;;;;;33.30;62.10;;;;;;4968021;28;20570;-72
2022/07/04 12:30:22;;;;;;;;;;;33.20;61.10;;;;;;4968267;28;20675;-71
2022/07/04 12:32:51;;;;;;;;;;;33.30;61.20;;;;;;4973471;28;20213;-71
2022/07/04 12:35:37;;;;;;;;;;;33.50;63.40;;;;;;4974443;28;20187;-72
2022/07/04 12:38:07;;;;;;;;;;;33.40;62.70;;;;;;4974079;28;20881;-70
2022/07/04 12:40:35;;;;;;;;;;;33.00;62.80;;;;;;4973642;28;20194;-71
2022/07/04 12:43:10;;;;;;;;;;;32.80;62.50;;;;;;4989475;28;20199;-71
2022/07/04 12:45:47;;;;;;;;;;;33.10;63.20;;;;;;4992843;28;20599;-71
2022/07/04 12:48:19;;;;;;;;;;;33.30;62.90;;;;;;4992555;28;20186;-71
2022/07/04 12:50:47;;;;;;;;;;;33.50;60.40;;;;;;4992693;28;20189;-71
2022/07/04 12:53:16;;;;;;;;;;;33.20;61.20;;;;;;4991784;28;20210;-71
2022/07/04 12:55:44;;;;;;;;;;;33.40;61.50;;;;;;4992139;28;20182;-72
2022/07/04 12:58:12;;;;;;;;;;;33.50;61.90;;;;;;4992146;28;20195;-71
2022/07/04 13:00:41;;;;;;;;;;;33.60;61.50;;;;;;4992430;28;20178;-71
2022/07/04 13:03:09;;;;;;;;;;;33.40;61.80;;;;;;4991742;28;20201;-72
2022/07/04 13:05:39;;;;;;;;;;;33.40;61.40;;;;;;4991469;28;20405;-71
2022/07/04 13:08:07;;;;;;;;;;;34.00;60.90;;;;;;4987211;28;20205;-71
2022/07/04 13:10:36;;;;;;;;;;;33.90;61.70;;;;;;4973683;28;20244;-71
2022/07/04 13:13:04;;;;;;;;;;;34.20;61.60;;;;;;4972573;28;20222;-71
2022/07/04 13:15:32;;;;;;;;;;;33.50;59.50;;;;;;4973293;28;20245;-72
2022/07/04 13:18:00;;;;;;;;;;;33.00;60.50;;;;;;4973341;28;20191;-71
2022/07/04 13:20:27;;;;;;;;;;;33.00;60.90;;;;;;4973289;28;20183;-71
2022/07/04 13:22:55;;;;;;;;;;;33.00;60.50;;;;;;4972749;28;20203;-71
2022/07/04 13:25:23;;;;;;;;;;;33.10;60.60;;;;;;4973020;28;20613;-71
2022/07/04 13:27:52;;;;;;;;;;;33.10;61.70;;;;;;4973259;28;20182;-71
2022/07/04 13:30:20;;;;;;;;;;;33.10;60.10;;;;;;4973361;28;20211;-71
2022/07/04 13:32:48;;;;;;;;;;;33.70;60.90;;;;;;4972515;28;20604;-71
2022/07/04 13:35:15;;;;;;;;;;;34.20;60.00;;;;;;4973155;28;20193;-71
2022/07/04 13:37:43;;;;;;;;;;;34.40;59.30;;;;;;4972626;28;20183;-71
2022/07/04 13:40:11;;;;;;;;;;;34.70;60.10;;;;;;4973199;28;20535;-71
2022/07/04 13:45:26;;;;;;;;;;;35.00;58.40;;;;;;4991815;28;20193;-71
2022/07/04 13:47:54;;;;;;;;;;;34.70;59.50;;;;;;4991551;28;20186;-71
2022/07/04 13:50:22;;;;;;;;;;;33.50;59.30;;;;;;4991779;28;20179;-71
2022/07/04 13:52:51;;;;;;;;;;;33.20;59.90;;;;;;4990984;28;20574;-71
2022/07/04 13:55:19;;;;;;;;;;;32.80;59.80;;;;;;4991046;28;20548;-71
2022/07/04 13:57:47;;;;;;;;;;;32.70;60.80;;;;;;4991381;28;20225;-70
2022/07/04 14:00:15;;;;;;;;;;;32.80;59.90;;;;;;4991619;28;20186;-71
2022/07/04 14:02:44;;;;;;;;;;;32.60;62.10;;;;;;4990905;28;20189;-70
2022/07/04 14:05:12;;;;;;;;;;;32.50;60.70;;;;;;4991545;28;20178;-71
2022/07/04 14:07:40;;;;;;;;;;;32.70;62.70;;;;;;4990207;28;20182;-71
2022/07/04 14:10:08;;;;;;;;;;;32.90;60.40;;;;;;4972633;28;20214;-71
2022/07/04 14:12:35;;;;;;;;;;;33.30;59.60;;;;;;4985764;28;20246;-72
2022/07/04 14:15:03;;;;;;;;;;;33.20;60.70;;;;;;4991587;28;20236;-72
2022/07/04 14:17:31;;;;;;;;;;;32.60;60.60;;;;;;4991782;28;20171;-71
2022/07/04 14:20:05;;;;;;;;;;;32.60;61.10;;;;;;4991516;28;20192;-71
2022/07/04 14:22:33;;;;;;;;;;;32.70;59.70;;;;;;4990867;28;20198;-71
2022/07/04 14:25:01;;;;;;;;;;;33.10;59.90;;;;;;4991051;28;20216;-71
2022/07/04 14:27:29;;;;;;;;;;;33.20;60.20;;;;;;4992415;28;20179;-71
2022/07/04 14:29:57;;;;;;;;;;;33.20;60.40;;;;;;4995231;28;20569;-71
2022/07/04 14:32:24;;;;;;;;;;;32.90;61.90;;;;;;4994554;28;20582;-71
2022/07/04 14:34:52;;;;;;;;;;;33.00;59.80;;;;;;4995036;28;20695;-71
2022/07/04 14:37:21;;;;;;;;;;;33.30;60.00;;;;;;4995107;28;20610;-71
2022/07/04 14:39:49;;;;;;;;;;;33.50;59.20;;;;;;4976552;28;20190;-71
2022/07/04 14:42:17;;;;;;;;;;;33.50;58.80;;;;;;4983477;28;20594;-71
2022/07/04 14:44:45;;;;;;;;;;;33.70;58.70;;;;;;4994683;28;20203;-71
2022/07/04 14:47:12;;;;;;;;;;;33.70;61.40;;;;;;4994999;28;20235;-71
2022/07/04 14:49:40;;;;;;;;;;;33.60;59.20;;;;;;4994779;28;20248;-71
2022/07/04 14:52:08;;;;;;;;;;;34.10;59.80;;;;;;4994279;28;20583;-71
2022/07/04 14:54:37;;;;;;;;;;;34.10;58.70;;;;;;4993835;28;20227;-71